Knoxville, TN

11:27 PM EDT on October 31, 2014 (GMT -0400)
Andrews | Change Station
CLOSE
Current Station
Airport
Location: Andrews,
Elevation: 1696 ft
Nearby Weather Stations
Active Advisory: Freeze Watch

Elev 1696 ft 35.20 °N, 83.86 °W | Updated 12 minutes ago

Rain
Rain
37 °F
Feels Like 37 °F
N
0
Wind Variable Wind from North

Today
High -- | Low -- °F
--% Chance of Precip.
Yesterday
High -- | Low -- °F
Precip. -- in
7:57 AM 6:40 PM
First Quarter, 62% visible
Pressure 29.95 in
Visibility 10.0 miles
Clouds Scattered Clouds 2200 ft
Mostly Cloudy 2900 ft
Overcast 4700 ft
Dew Point 31 °F
Humidity 80%
Rainfall 0.03 in
Snow Depth Not available.
UV 0 out of 12
Pollen .10 out of 12
Air Quality Not available.
Flu Activity Not available.
METAR KRHP 010315Z AUTO 00000KT 10SM -RA SCT022 BKN029 OVC047 03/00 A2995 RMK AO2 T00261005

More Conditions Fewer Conditions

Pressure 29.95 in
Visibility 10.0 miles
Clouds Scattered Clouds 2200 ft
Mostly Cloudy 2900 ft
Overcast 4700 ft
Dew Point 31 °F
Humidity 80%
Rainfall 0.03 in
Snow Depth Not available.
UV 0 out of 12
Pollen .10 out of 12
Air Quality Not available.
Flu Activity Not available.
METAR KRHP 010315Z AUTO 00000KT 10SM -RA SCT022 BKN029 OVC047 03/00 A2995 RMK AO2 T00261005

More Conditions Fewer Conditions

10-Day Weather Forecast

Almanac

Astronomy

Oct. 31, 2014 Rise Set
Actual Time
Civil Twilight
Nautical Twilight
Astronomical Twilight
Moon
Length of Visible Light
Length of Day
Tomorrow will be .
, % of the Moon is Illuminated

Today's Extremes

State Highs State Lows

Community

WunderPhotos

Upload Photos

1,766,844 photos uploaded!

WunderBlogs® & News

Nearby

Air Quality

  Air Quality AQ Index Pollutant
Not available.

Snow Depth

Station Depth Elevation

Earthquake Activity

City Distance Mag. Time & Date
Minimum magnitude displayed is 2.5.

Coastal Water Temperatures

Place Temperature

Nearby Weather Stations